sensor_id;sensor_type;location;lat;lon;timestamp;pressure;altitude;pressure_sealevel;temperature;humidity
38191;BME280;25191;47.510;19.124;2023-09-18T00:15:15;100564.66;;;23.28;53.50
38191;BME280;25191;47.510;19.124;2023-09-18T00:35:17;100552.34;;;23.17;53.38
38191;BME280;25191;47.510;19.124;2023-09-18T00:55:17;100558.19;;;23.21;53.10
38191;BME280;25191;47.510;19.124;2023-09-18T01:15:22;100520.41;;;22.76;53.51
38191;BME280;25191;47.510;19.124;2023-09-18T01:35:26;100530.09;;;22.87;53.48
38191;BME280;25191;47.510;19.124;2023-09-18T01:55:29;100503.53;;;22.67;53.37
38191;BME280;25191;47.510;19.124;2023-09-18T02:15:30;100519.72;;;22.74;53.48
38191;BME280;25191;47.510;19.124;2023-09-18T02:35:32;100528.16;;;22.68;53.27
38191;BME280;25191;47.510;19.124;2023-09-18T02:55:32;100564.19;;;22.79;53.35
38191;BME280;25191;47.510;19.124;2023-09-18T03:15:33;100527.44;;;22.66;52.89
38191;BME280;25191;47.510;19.124;2023-09-18T03:35:53;100549.44;;;22.76;52.85
38191;BME280;25191;47.510;19.124;2023-09-18T03:55:54;100539.41;;;22.70;52.29
38191;BME280;25191;47.510;19.124;2023-09-18T04:15:55;100460.34;;;22.68;51.81
38191;BME280;25191;47.510;19.124;2023-09-18T04:35:58;100502.13;;;23.69;51.54
38191;BME280;25191;47.510;19.124;2023-09-18T04:55:58;100522.66;;;23.87;52.16
38191;BME280;25191;47.510;19.124;2023-09-18T05:16:02;100523.78;;;23.84;53.59
38191;BME280;25191;47.510;19.124;2023-09-18T05:36:04;100506.34;;;23.50;53.17
38191;BME280;25191;47.510;19.124;2023-09-18T05:56:04;100463.25;;;23.50;52.90
38191;BME280;25191;47.510;19.124;2023-09-18T06:16:05;100463.81;;;23.54;52.12
38191;BME280;25191;47.510;19.124;2023-09-18T06:36:07;100498.75;;;23.57;52.60
38191;BME280;25191;47.510;19.124;2023-09-18T06:56:08;100452.34;;;23.43;52.39
38191;BME280;25191;47.510;19.124;2023-09-18T07:16:09;100491.63;;;23.89;51.79
38191;BME280;25191;47.510;19.124;2023-09-18T07:36:10;100490.72;;;24.00;51.62
38191;BME280;25191;47.510;19.124;2023-09-18T07:56:11;100434.41;;;23.78;52.03
38191;BME280;25191;47.510;19.124;2023-09-18T08:16:11;100460.97;;;24.07;52.13
38191;BME280;25191;47.510;19.124;2023-09-18T08:36:14;100397.22;;;23.70;53.05
38191;BME280;25191;47.510;19.124;2023-09-18T08:56:17;100397.69;;;23.85;52.47
38191;BME280;25191;47.510;19.124;2023-09-18T09:16:18;100415.28;;;24.05;51.85
38191;BME280;25191;47.510;19.124;2023-09-18T09:36:20;100375.03;;;24.02;51.60
38191;BME280;25191;47.510;19.124;2023-09-18T09:56:21;100389.13;;;24.51;51.38
38191;BME280;25191;47.510;19.124;2023-09-18T10:16:23;100360.41;;;24.76;50.43
38191;BME280;25191;47.510;19.124;2023-09-18T10:36:27;100303.03;;;24.94;49.74
38191;BME280;25191;47.510;19.124;2023-09-18T10:56:30;100295.34;;;25.01;50.78
38191;BME280;25191;47.510;19.124;2023-09-18T11:16:35;100294.19;;;25.41;49.90
38191;BME280;25191;47.510;19.124;2023-09-18T11:36:38;100256.78;;;25.99;49.08
38191;BME280;25191;47.510;19.124;2023-09-18T11:56:40;100253.97;;;25.82;46.92
38191;BME280;25191;47.510;19.124;2023-09-18T12:16:40;100203.06;;;25.79;48.05
38191;BME280;25191;47.510;19.124;2023-09-18T12:36:43;100198.13;;;25.66;48.22
38191;BME280;25191;47.510;19.124;2023-09-18T12:56:44;100189.25;;;25.93;46.74
38191;BME280;25191;47.510;19.124;2023-09-18T13:16:44;100106.72;;;25.52;46.36
38191;BME280;25191;47.510;19.124;2023-09-18T13:36:45;100125.84;;;25.82;45.43
38191;BME280;25191;47.510;19.124;2023-09-18T13:56:45;100106.00;;;26.20;45.92
38191;BME280;25191;47.510;19.124;2023-09-18T14:16:48;100035.16;;;25.78;46.13
38191;BME280;25191;47.510;19.124;2023-09-18T14:36:51;100072.31;;;26.13;45.61
38191;BME280;25191;47.510;19.124;2023-09-18T14:56:52;100010.38;;;25.69;45.81
38191;BME280;25191;47.510;19.124;2023-09-18T15:16:53;100022.41;;;25.90;44.58
38191;BME280;25191;47.510;19.124;2023-09-18T15:36:57;99998.84;;;25.79;46.26
38191;BME280;25191;47.510;19.124;2023-09-18T15:56:58;99941.94;;;25.65;46.12
38191;BME280;25191;47.510;19.124;2023-09-18T16:16:59;99954.69;;;25.61;46.18
38191;BME280;25191;47.510;19.124;2023-09-18T16:37:05;99925.94;;;25.48;47.04
38191;BME280;25191;47.510;19.124;2023-09-18T16:57:06;99905.63;;;25.31;46.82
38191;BME280;25191;47.510;19.124;2023-09-18T17:17:07;99907.06;;;25.43;47.55
38191;BME280;25191;47.510;19.124;2023-09-18T17:37:08;99864.84;;;25.23;47.20
38191;BME280;25191;47.510;19.124;2023-09-18T17:57:09;99865.53;;;25.25;47.65
38191;BME280;25191;47.510;19.124;2023-09-18T18:17:10;99863.03;;;25.24;46.69
38191;BME280;25191;47.510;19.124;2023-09-18T18:37:11;99850.25;;;25.19;45.58
38191;BME280;25191;47.510;19.124;2023-09-18T18:57:13;99865.97;;;25.39;45.10
38191;BME280;25191;47.510;19.124;2023-09-18T19:17:17;99854.34;;;25.05;44.00
38191;BME280;25191;47.510;19.124;2023-09-18T19:37:18;99858.28;;;25.01;43.61
38191;BME280;25191;47.510;19.124;2023-09-18T19:57:19;99811.16;;;24.78;43.70
38191;BME280;25191;47.510;19.124;2023-09-18T20:17:20;99856.00;;;24.80;44.28
38191;BME280;25191;47.510;19.124;2023-09-18T20:37:23;99841.59;;;24.56;44.85
38191;BME280;25191;47.510;19.124;2023-09-18T20:57:25;99827.66;;;24.99;45.50
38191;BME280;25191;47.510;19.124;2023-09-18T21:17:25;99795.38;;;25.03;45.66
38191;BME280;25191;47.510;19.124;2023-09-18T21:37:26;99811.34;;;25.20;46.10
38191;BME280;25191;47.510;19.124;2023-09-18T21:57:26;99777.47;;;24.97;46.71
38191;BME280;25191;47.510;19.124;2023-09-18T22:17:27;99807.25;;;25.25;46.68
38191;BME280;25191;47.510;19.124;2023-09-18T22:37:27;99780.84;;;25.16;47.05
38191;BME280;25191;47.510;19.124;2023-09-18T22:57:36;99772.22;;;25.05;47.17
38191;BME280;25191;47.510;19.124;2023-09-18T23:17:38;99791.97;;;25.19;47.16
38191;BME280;25191;47.510;19.124;2023-09-18T23:37:39;99763.78;;;25.10;47.51
38191;BME280;25191;47.510;19.124;2023-09-18T23:57:52;99766.44;;;25.10;47.38
